Gulfport, Mississippi
Current Conditions -  °F | °C
As of 7:53 AM on Monday 24 Nov 2014 (Local Time) from KGPT Reporting Station
Haze Haze  
Wind Chill: 68°   Ceiling: Unl
Heat Index: 68°   Visibility: 5mi
Dew Point: 65°   Wind: 5mph
Humidity: 90%   Direction: 280°W
Pressure: 29.83"   Gusts: NA
Location:  30.38°N, 89.09°W
Report Text: KGPT 241353Z 28004KT 5SM BR CLR 20/18 A2983 RMK AO2 SLP101 T02000183
Loading
Personal Weather Stations






























Interactive Weather Map New forecast layout! Learn more

10-Day Weather Forecast

Advertisements
Track Severe Weather on mobile